createdAt,value
2022-10-17T00:01:54.325Z,7.18
2022-10-17T00:04:20.779Z,7.20
2022-10-17T00:06:47.208Z,6.50
2022-10-17T00:09:13.738Z,5.72
2022-10-17T00:11:40.152Z,5.70
2022-10-17T00:14:06.690Z,5.60
2022-10-17T00:16:36.871Z,5.50
2022-10-17T00:19:07.284Z,5.20
2022-10-17T00:21:34.109Z,4.38
2022-10-17T00:24:01.184Z,4.40
2022-10-17T00:26:29.536Z,4.57
2022-10-17T00:28:56.550Z,4.30
2022-10-17T00:31:24.412Z,4.78
2022-10-17T00:33:51.767Z,4.63
2022-10-17T00:36:21.929Z,5.03
2022-10-17T00:38:51.317Z,4.63
2022-10-17T00:41:20.007Z,4.90
2022-10-17T00:43:54.375Z,4.80
2022-10-17T00:46:22.088Z,4.47
2022-10-17T00:48:50.914Z,5.15
2022-10-17T00:51:20.374Z,4.85
2022-10-17T00:53:46.905Z,5.20
2022-10-17T00:56:13.743Z,5.10
2022-10-17T00:58:40.316Z,5.38
2022-10-17T01:01:06.711Z,5.07
2022-10-17T01:03:33.152Z,4.80
2022-10-17T01:05:59.855Z,4.77
2022-10-17T01:08:26.821Z,4.60
2022-10-17T01:11:26.485Z,4.10
2022-10-17T01:14:02.665Z,4.30
2022-10-17T01:17:02.921Z,4.00
2022-10-17T01:20:01.809Z,3.70
2022-10-17T01:22:40.721Z,4.10
2022-10-17T01:25:16.396Z,4.10
2022-10-17T01:27:56.612Z,3.72
2022-10-17T01:31:00.432Z,4.28
2022-10-17T01:33:48.255Z,3.23
2022-10-17T01:36:22.684Z,3.97
2022-10-17T01:38:53.584Z,3.78
2022-10-17T01:41:31.049Z,4.32
2022-10-17T01:44:08.397Z,4.57
2022-10-17T01:46:37.884Z,4.30
2022-10-17T01:49:07.964Z,3.90
2022-10-17T01:51:42.688Z,4.20
2022-10-17T01:54:18.498Z,4.18
2022-10-17T01:56:47.985Z,4.20
2022-10-17T01:59:22.215Z,4.50
2022-10-17T02:01:52.791Z,4.47
2022-10-17T02:04:19.629Z,4.90
2022-10-17T02:06:46.044Z,4.80
2022-10-17T02:09:24.816Z,5.57
2022-10-17T02:12:29.740Z,5.50
2022-10-17T02:15:23.645Z,6.15
2022-10-17T02:17:52.946Z,6.45
2022-10-17T02:20:36.493Z,6.30
2022-10-17T02:23:12.448Z,6.32
2022-10-17T02:25:46.029Z,6.17
2022-10-17T02:28:19.742Z,6.55
2022-10-17T02:30:46.035Z,6.20
2022-10-17T02:33:20.802Z,6.05
2022-10-17T02:35:52.052Z,5.95
2022-10-17T02:38:18.972Z,5.73
2022-10-17T02:40:46.397Z,6.13
2022-10-17T02:43:13.707Z,7.07
2022-10-17T02:45:40.869Z,6.25
2022-10-17T02:48:30.931Z,6.25
2022-10-17T02:51:07.657Z,5.83
2022-10-17T02:53:52.161Z,6.45
2022-10-17T02:56:21.220Z,5.63
2022-10-17T02:58:57.008Z,6.13
2022-10-17T03:01:24.817Z,6.40
2022-10-17T03:03:51.212Z,6.50
2022-10-17T03:06:17.634Z,6.70
2022-10-17T03:08:43.988Z,6.80
2022-10-17T03:11:10.349Z,7.00
2022-10-17T03:13:39.686Z,6.80
2022-10-17T03:16:06.554Z,6.83
2022-10-17T03:18:32.948Z,6.80
2022-10-17T03:20:59.313Z,6.75
2022-10-17T03:23:25.647Z,6.20
2022-10-17T03:25:52.028Z,6.50
2022-10-17T03:28:18.404Z,5.90
2022-10-17T03:30:44.740Z,6.40
2022-10-17T03:33:11.120Z,6.22
2022-10-17T03:35:40.221Z,6.57
2022-10-17T03:38:06.700Z,6.45
2022-10-17T03:40:33.071Z,6.57
2022-10-17T03:42:59.417Z,6.30
2022-10-17T03:45:25.769Z,6.40
2022-10-17T03:47:52.131Z,6.18
2022-10-17T03:50:18.514Z,6.72
2022-10-17T03:52:48.962Z,6.70
2022-10-17T03:55:16.466Z,6.75
2022-10-17T03:57:45.400Z,7.20
2022-10-17T04:00:13.022Z,6.63
2022-10-17T04:02:39.525Z,6.45
2022-10-17T04:05:06.470Z,5.73
2022-10-17T04:07:32.888Z,6.68
2022-10-17T04:09:59.252Z,5.80
2022-10-17T04:12:25.595Z,6.80
2022-10-17T04:14:51.927Z,6.20
2022-10-17T04:17:18.345Z,6.43
2022-10-17T04:19:44.708Z,6.38
2022-10-17T04:22:11.074Z,5.93
2022-10-17T04:24:37.424Z,5.70
2022-10-17T04:27:03.910Z,5.78
2022-10-17T04:29:30.259Z,5.70
2022-10-17T04:31:56.617Z,6.32
2022-10-17T04:34:22.959Z,5.50
2022-10-17T04:36:49.365Z,5.93
2022-10-17T04:39:15.729Z,5.93
2022-10-17T04:41:42.365Z,6.07
2022-10-17T04:44:10.786Z,5.18
2022-10-17T04:46:37.247Z,5.60
2022-10-17T04:49:03.664Z,5.47
2022-10-17T04:51:30.053Z,5.80
2022-10-17T04:53:56.410Z,5.53
2022-10-17T04:56:24.110Z,5.03
2022-10-17T04:58:51.072Z,4.90
2022-10-17T05:01:20.028Z,5.13
2022-10-17T05:03:46.657Z,5.35
2022-10-17T05:06:18.598Z,5.47
2022-10-17T05:08:45.596Z,5.88
2022-10-17T05:11:20.440Z,6.95
2022-10-17T05:13:52.059Z,8.93
2022-10-17T05:16:18.524Z,8.65
2022-10-17T05:18:47.428Z,8.33
2022-10-17T05:21:15.895Z,7.70
2022-10-17T05:23:42.278Z,7.82
2022-10-17T05:26:08.644Z,7.13
2022-10-17T05:28:35.144Z,6.78
2022-10-17T05:31:06.029Z,7.13
2022-10-17T05:33:33.216Z,6.78
2022-10-17T05:35:59.621Z,6.78
2022-10-17T05:38:26.757Z,6.65
2022-10-17T05:41:00.478Z,6.47
2022-10-17T05:43:27.376Z,6.17
2022-10-17T05:45:54.347Z,6.20
2022-10-17T05:48:21.807Z,6.07
2022-10-17T05:50:48.801Z,6.15
2022-10-17T05:53:16.065Z,6.90
2022-10-17T05:55:42.443Z,6.10
2022-10-17T05:58:11.718Z,7.13
2022-10-17T06:00:44.161Z,8.52
2022-10-17T06:03:12.343Z,8.02
2022-10-17T06:05:38.704Z,7.78
2022-10-17T06:08:05.230Z,7.23
2022-10-17T06:10:31.578Z,7.30
2022-10-17T06:12:57.926Z,7.70
2022-10-17T06:15:24.258Z,7.07
2022-10-17T06:17:50.818Z,7.00
2022-10-17T06:20:17.285Z,6.57
2022-10-17T06:22:43.821Z,7.47
2022-10-17T06:25:10.374Z,6.97
2022-10-17T06:27:36.727Z,7.13
2022-10-17T06:30:04.018Z,7.15
2022-10-17T06:32:30.813Z,6.70
2022-10-17T06:34:57.418Z,6.80
2022-10-17T06:37:23.789Z,6.78
2022-10-17T06:39:50.130Z,6.28
2022-10-17T06:42:16.909Z,6.53
2022-10-17T06:44:43.295Z,6.10
2022-10-17T06:47:10.238Z,5.78
2022-10-17T06:49:36.580Z,6.60
2022-10-17T06:52:02.953Z,5.47
2022-10-17T06:54:29.381Z,6.40
2022-10-17T06:56:56.178Z,6.00
2022-10-17T06:59:22.575Z,6.20
2022-10-17T07:01:48.965Z,5.88
2022-10-17T07:04:15.323Z,5.80
2022-10-17T07:06:41.875Z,5.60
2022-10-17T07:09:08.286Z,5.43
2022-10-17T07:11:35.178Z,6.05
2022-10-17T07:14:02.553Z,5.85
2022-10-17T07:16:29.454Z,5.28
2022-10-17T07:18:56.159Z,5.43
2022-10-17T07:21:22.576Z,5.10
2022-10-17T07:23:49.103Z,5.80
2022-10-17T07:26:17.591Z,5.50
2022-10-17T07:28:46.276Z,5.70
2022-10-17T07:31:15.995Z,5.72
2022-10-17T07:33:43.523Z,6.10
2022-10-17T07:36:09.978Z,5.45
2022-10-17T07:38:36.694Z,5.70
2022-10-17T07:41:06.047Z,5.82
2022-10-17T07:43:33.792Z,6.78
2022-10-17T07:46:02.626Z,6.50
2022-10-17T07:48:29.738Z,5.65
2022-10-17T07:50:56.171Z,5.75
2022-10-17T07:53:22.528Z,5.85
2022-10-17T07:55:49.651Z,6.00
2022-10-17T07:58:16.473Z,5.53
2022-10-17T08:00:43.378Z,6.32
2022-10-17T08:03:10.862Z,6.18
2022-10-17T08:05:37.213Z,5.95
2022-10-17T08:08:03.695Z,5.45
2022-10-17T08:10:30.097Z,5.57
2022-10-17T08:12:57.931Z,5.53
2022-10-17T08:15:29.351Z,5.53
2022-10-17T08:17:59.482Z,5.78
2022-10-17T08:20:25.978Z,5.60
2022-10-17T08:22:53.744Z,5.50
2022-10-17T08:25:20.232Z,4.85
2022-10-17T08:27:46.742Z,5.00
2022-10-17T08:30:13.452Z,4.28
2022-10-17T08:32:39.991Z,4.35
2022-10-17T08:35:06.908Z,4.60
2022-10-17T08:37:33.598Z,4.30
2022-10-17T08:40:00.241Z,3.83
2022-10-17T08:42:45.398Z,4.07
2022-10-17T08:45:26.922Z,4.07
2022-10-17T08:47:59.018Z,3.83
2022-10-17T08:50:48.391Z,3.20
2022-10-17T08:53:36.244Z,3.20
2022-10-17T08:59:17.640Z,2.78
2022-10-17T09:02:02.805Z,2.67
2022-10-17T09:04:47.531Z,2.55
2022-10-17T09:07:46.172Z,2.60
2022-10-17T09:10:28.583Z,3.05
2022-10-17T09:13:24.518Z,2.63
2022-10-17T09:16:14.820Z,2.53
2022-10-17T09:18:46.001Z,2.30
2022-10-17T09:21:20.838Z,2.50
2022-10-17T09:24:08.897Z,2.67
2022-10-17T09:26:39.200Z,2.30
2022-10-17T09:29:15.598Z,2.40
2022-10-17T09:34:32.058Z,2.53
2022-10-17T09:37:00.807Z,2.25
2022-10-17T09:39:31.792Z,2.33
2022-10-17T09:41:59.932Z,2.60
2022-10-17T09:44:47.498Z,2.20
2022-10-17T09:47:34.456Z,2.50
2022-10-17T09:50:01.479Z,2.30
2022-10-17T09:52:36.310Z,2.17
2022-10-17T09:55:17.426Z,2.47
2022-10-17T09:58:00.577Z,2.20
2022-10-17T10:00:30.612Z,2.40
2022-10-17T10:03:20.237Z,2.17
2022-10-17T10:06:03.777Z,2.38
2022-10-17T10:08:34.226Z,2.13
2022-10-17T10:11:07.876Z,2.35
2022-10-17T10:13:36.023Z,2.55
2022-10-17T10:16:32.369Z,2.20
2022-10-17T10:18:58.939Z,2.20
2022-10-17T10:21:27.465Z,2.07
2022-10-17T10:23:59.673Z,2.35
2022-10-17T10:26:29.532Z,2.30
2022-10-17T10:29:02.511Z,2.72
2022-10-17T10:31:39.809Z,2.30
2022-10-17T10:34:32.726Z,2.30
2022-10-17T10:37:06.280Z,2.45
2022-10-17T10:39:32.570Z,2.33
2022-10-17T10:42:01.223Z,2.20
2022-10-17T10:44:32.032Z,2.28
2022-10-17T10:47:28.069Z,2.40
2022-10-17T10:50:37.558Z,2.28
2022-10-17T10:53:14.729Z,2.28
2022-10-17T10:55:51.471Z,2.15
2022-10-17T10:58:33.127Z,1.98
2022-10-17T11:01:05.043Z,2.67
2022-10-17T11:06:18.941Z,2.25
2022-10-17T11:09:06.516Z,2.45
2022-10-17T11:11:39.737Z,2.25
2022-10-17T11:14:38.862Z,2.30
2022-10-17T11:17:20.398Z,2.47
2022-10-17T11:19:58.774Z,2.22
2022-10-17T11:22:32.356Z,2.15
2022-10-17T11:25:26.163Z,2.33
2022-10-17T11:27:52.556Z,2.13
2022-10-17T11:30:19.200Z,2.35
2022-10-17T11:32:54.071Z,2.28
2022-10-17T11:35:45.147Z,2.72
2022-10-17T11:38:21.136Z,2.50
2022-10-17T11:40:54.118Z,2.37
2022-10-17T11:43:28.633Z,2.50
2022-10-17T11:45:59.534Z,2.45
2022-10-17T11:48:35.601Z,2.80
2022-10-17T11:54:04.249Z,2.60
2022-10-17T11:57:02.767Z,2.63
2022-10-17T11:59:45.839Z,3.05
2022-10-17T12:02:30.930Z,2.60
2022-10-17T12:05:20.984Z,2.92
2022-10-17T12:07:53.154Z,2.80
2022-10-17T12:10:48.980Z,2.50
2022-10-17T12:13:27.560Z,2.83
2022-10-17T12:16:17.949Z,2.67
2022-10-17T12:18:45.454Z,2.63
2022-10-17T12:21:12.103Z,2.73
2022-10-17T12:23:39.924Z,2.60
2022-10-17T12:26:09.364Z,2.47
2022-10-17T12:28:39.314Z,2.60
2022-10-17T12:31:29.620Z,2.40
2022-10-17T12:34:00.866Z,2.83
2022-10-17T12:36:27.170Z,2.40
2022-10-17T12:39:02.717Z,3.20
2022-10-17T12:41:38.318Z,2.50
2022-10-17T12:44:13.853Z,3.25
2022-10-17T12:46:55.706Z,3.20
2022-10-17T12:49:47.124Z,2.90
2022-10-17T12:52:28.928Z,3.05
2022-10-17T12:55:11.616Z,2.55
2022-10-17T12:57:59.377Z,2.83
2022-10-17T13:00:43.795Z,2.83
2022-10-17T13:03:20.253Z,2.78
2022-10-17T13:05:55.520Z,2.85
2022-10-17T13:08:32.810Z,2.70
2022-10-17T13:11:00.680Z,3.00
2022-10-17T13:13:42.725Z,2.60
2022-10-17T13:16:09.258Z,2.67
2022-10-17T13:18:35.916Z,2.60
2022-10-17T13:21:15.857Z,2.42
2022-10-17T13:23:42.297Z,2.40
2022-10-17T13:26:22.138Z,3.20
2022-10-17T13:29:01.713Z,3.20
2022-10-17T13:31:31.815Z,3.15
2022-10-17T13:34:00.753Z,2.55
2022-10-17T13:36:29.337Z,2.20
2022-10-17T13:38:57.481Z,2.17
2022-10-17T13:41:35.729Z,2.30
2022-10-17T13:44:09.218Z,3.08
2022-10-17T13:46:38.473Z,2.60
2022-10-17T13:49:20.075Z,2.70
2022-10-17T13:51:50.766Z,2.57
2022-10-17T13:54:34.066Z,2.40
2022-10-17T13:57:02.004Z,2.90
2022-10-17T13:59:34.378Z,2.90
2022-10-17T14:02:01.943Z,2.47
2022-10-17T14:04:35.509Z,2.80
2022-10-17T14:07:29.269Z,2.60
2022-10-17T14:09:57.914Z,2.83
2022-10-17T14:12:24.324Z,2.63
2022-10-17T14:15:10.404Z,2.70
2022-10-17T14:17:38.503Z,2.70
2022-10-17T14:20:26.640Z,2.58
2022-10-17T14:23:20.935Z,2.20
2022-10-17T14:25:40.820Z,2.13
2022-10-17T14:28:09.108Z,2.50
2022-10-17T14:30:55.881Z,2.40
2022-10-17T14:33:28.439Z,2.30
2022-10-17T14:35:57.523Z,2.17
2022-10-17T14:38:25.219Z,1.60
2022-10-17T14:41:23.581Z,1.80
2022-10-17T14:44:06.386Z,1.87
2022-10-17T14:46:35.670Z,1.90
2022-10-17T14:49:15.193Z,1.58
2022-10-17T14:52:07.517Z,1.70
2022-10-17T14:54:35.877Z,1.70
2022-10-17T14:57:14.688Z,1.67
2022-10-17T14:59:56.426Z,1.50
2022-10-17T15:02:28.481Z,1.95
2022-10-17T15:04:55.692Z,1.80
2022-10-17T15:07:23.481Z,1.80
2022-10-17T15:09:51.601Z,2.13
2022-10-17T15:12:20.789Z,1.85
2022-10-17T15:14:51.547Z,1.73
2022-10-17T15:17:29.925Z,1.67
2022-10-17T15:19:57.341Z,2.25
2022-10-17T15:22:24.288Z,1.97
2022-10-17T15:24:50.742Z,1.50
2022-10-17T15:27:19.743Z,1.63
2022-10-17T15:29:47.068Z,1.90
2022-10-17T15:32:14.294Z,2.55
2022-10-17T15:34:40.824Z,2.47
2022-10-17T15:37:16.330Z,2.60
2022-10-17T15:39:42.697Z,2.67
2022-10-17T15:42:11.812Z,1.63
2022-10-17T15:44:38.177Z,2.10
2022-10-17T15:47:22.380Z,2.30
2022-10-17T15:49:48.744Z,2.63
2022-10-17T15:52:15.092Z,2.15
2022-10-17T15:54:41.472Z,1.58
2022-10-17T15:57:17.749Z,2.38
2022-10-17T15:59:46.804Z,2.90
2022-10-17T16:02:14.901Z,3.20
2022-10-17T16:04:41.379Z,3.10
2022-10-17T16:07:07.970Z,2.78
2022-10-17T16:09:34.981Z,2.88
2022-10-17T16:12:01.743Z,3.00
2022-10-17T16:14:28.416Z,3.40
2022-10-17T16:16:54.772Z,3.70
2022-10-17T16:19:21.663Z,4.10
2022-10-17T16:21:48.055Z,3.55
2022-10-17T16:24:14.391Z,2.80
2022-10-17T16:26:41.023Z,2.60
2022-10-17T16:29:09.218Z,2.35
2022-10-17T16:31:39.886Z,2.63
2022-10-17T16:34:06.768Z,2.42
2022-10-17T16:36:33.128Z,2.50
2022-10-17T16:38:59.503Z,2.53
2022-10-17T16:41:54.781Z,3.10
2022-10-17T16:44:24.101Z,2.08
2022-10-17T16:46:50.463Z,3.20
2022-10-17T16:49:18.156Z,5.60
2022-10-17T16:51:44.564Z,4.80
2022-10-17T16:54:10.916Z,3.67
2022-10-17T16:56:37.306Z,4.07
2022-10-17T16:59:04.113Z,4.05
2022-10-17T17:01:30.557Z,3.20
2022-10-17T17:03:57.086Z,3.58
2022-10-17T17:06:28.631Z,3.38
2022-10-17T17:08:55.903Z,2.85
2022-10-17T17:11:24.332Z,2.80
2022-10-17T17:13:50.684Z,2.57
2022-10-17T17:16:21.568Z,2.55
2022-10-17T17:18:50.779Z,3.25
2022-10-17T17:21:17.255Z,2.60
2022-10-17T17:23:43.780Z,3.00
2022-10-17T17:26:13.478Z,2.10
2022-10-17T17:28:40.793Z,2.33
2022-10-17T17:31:09.921Z,2.70
2022-10-17T17:33:38.555Z,2.83
2022-10-17T17:36:06.349Z,2.58
2022-10-17T17:38:34.663Z,2.70
2022-10-17T17:41:01.871Z,2.67
2022-10-17T17:43:28.595Z,2.85
2022-10-17T17:45:55.105Z,2.80
2022-10-17T17:48:21.697Z,3.03
2022-10-17T17:50:48.359Z,3.10
2022-10-17T17:53:16.253Z,3.78
2022-10-17T17:55:42.590Z,3.30
2022-10-17T17:58:09.721Z,3.22
2022-10-17T18:00:36.274Z,3.35
2022-10-17T18:03:02.974Z,3.10
2022-10-17T18:05:29.765Z,3.10
2022-10-17T18:07:56.196Z,3.00
2022-10-17T18:10:22.576Z,3.10
2022-10-17T18:12:48.931Z,2.85
2022-10-17T18:15:15.524Z,2.87
2022-10-17T18:17:42.361Z,3.67
2022-10-17T18:20:09.361Z,3.15
2022-10-17T18:22:35.758Z,4.40
2022-10-17T18:25:02.755Z,4.40
2022-10-17T18:27:29.174Z,4.20
2022-10-17T18:29:56.129Z,4.43
2022-10-17T18:32:22.543Z,4.63
2022-10-17T18:34:48.884Z,4.00
2022-10-17T18:37:15.240Z,3.80
2022-10-17T18:39:41.595Z,3.17
2022-10-17T18:42:08.098Z,3.70
2022-10-17T18:44:34.490Z,4.43
2022-10-17T18:47:03.924Z,4.95
2022-10-17T18:49:31.101Z,5.13
2022-10-17T18:51:57.565Z,4.40
2022-10-17T18:54:24.345Z,3.95
2022-10-17T18:56:53.127Z,4.07
2022-10-17T18:59:20.554Z,3.65
2022-10-17T19:01:47.429Z,4.13
2022-10-17T19:04:14.338Z,4.33
2022-10-17T19:06:41.638Z,3.30
2022-10-17T19:09:10.337Z,4.05
2022-10-17T19:11:38.178Z,3.42
2022-10-17T19:14:12.580Z,3.38
2022-10-17T19:16:42.729Z,3.20
2022-10-17T19:19:15.486Z,2.95
2022-10-17T19:21:42.004Z,3.10
2022-10-17T19:24:12.638Z,3.33
2022-10-17T19:26:40.618Z,3.20
2022-10-17T19:29:07.082Z,3.87
2022-10-17T19:31:34.898Z,3.55
2022-10-17T19:34:01.300Z,4.20
2022-10-17T19:36:33.350Z,3.20
2022-10-17T19:39:02.235Z,3.15
2022-10-17T19:41:28.733Z,3.03
2022-10-17T19:43:55.167Z,3.10
2022-10-17T19:46:24.036Z,3.05
2022-10-17T19:48:51.183Z,3.20
2022-10-17T19:51:19.370Z,3.25
2022-10-17T19:53:46.802Z,3.40
2022-10-17T19:56:14.096Z,3.72
2022-10-17T19:58:46.595Z,3.63
2022-10-17T20:01:19.090Z,3.70
2022-10-17T20:03:46.449Z,3.45
2022-10-17T20:06:13.515Z,6.17
2022-10-17T20:08:40.666Z,6.30
2022-10-17T20:11:10.434Z,5.80
2022-10-17T20:13:37.463Z,6.30
2022-10-17T20:16:06.187Z,8.88
2022-10-17T20:18:32.655Z,9.03
2022-10-17T20:21:08.343Z,7.03
2022-10-17T20:23:35.164Z,7.47
2022-10-17T20:26:08.600Z,7.43
2022-10-17T20:28:51.106Z,6.47
2022-10-17T20:31:18.080Z,6.17
2022-10-17T20:33:44.604Z,5.95
2022-10-17T20:36:12.237Z,5.07
2022-10-17T20:38:38.787Z,6.03
2022-10-17T20:41:08.598Z,6.20
2022-10-17T20:43:35.628Z,5.97
2022-10-17T20:46:15.465Z,6.63
2022-10-17T20:48:52.680Z,6.75
2022-10-17T20:51:20.574Z,7.20
2022-10-17T20:53:48.033Z,8.32
2022-10-17T20:56:21.178Z,8.43
2022-10-17T20:58:56.025Z,8.18
2022-10-17T21:01:23.200Z,8.30
2022-10-17T21:03:50.119Z,7.82
2022-10-17T21:06:17.926Z,7.50
2022-10-17T21:08:46.052Z,7.40
2022-10-17T21:11:18.338Z,6.93
2022-10-17T21:13:45.939Z,7.00
2022-10-17T21:16:18.191Z,7.75
2022-10-17T21:18:45.667Z,7.82
2022-10-17T21:21:11.935Z,7.17
2022-10-17T21:23:39.607Z,7.25
2022-10-17T21:26:08.804Z,7.10
2022-10-17T21:28:36.824Z,6.10
2022-10-17T21:31:20.164Z,6.65
2022-10-17T21:33:49.818Z,6.10
2022-10-17T21:36:17.841Z,6.00
2022-10-17T21:38:46.057Z,5.82
2022-10-17T21:41:14.469Z,6.03
2022-10-17T21:43:42.624Z,6.38
2022-10-17T21:46:14.587Z,5.53
2022-10-17T21:48:41.564Z,5.50
2022-10-17T21:51:12.738Z,4.82
2022-10-17T21:53:39.091Z,4.90
2022-10-17T21:56:08.226Z,5.22
2022-10-17T21:58:34.766Z,4.60
2022-10-17T22:01:06.416Z,4.45
2022-10-17T22:03:38.646Z,4.53
2022-10-17T22:06:34.540Z,4.60
2022-10-17T22:08:55.706Z,5.82
2022-10-17T22:11:30.847Z,5.47
2022-10-17T22:13:59.636Z,5.20
2022-10-17T22:16:26.449Z,4.60
2022-10-17T22:18:56.417Z,6.30
2022-10-17T22:21:22.896Z,6.07
2022-10-17T22:23:58.906Z,5.90
2022-10-17T22:26:26.677Z,5.30
2022-10-17T22:28:53.351Z,4.90
2022-10-17T22:31:20.002Z,5.15
2022-10-17T22:33:46.628Z,5.20
2022-10-17T22:36:13.526Z,5.13
2022-10-17T22:38:39.946Z,4.97
2022-10-17T22:41:06.564Z,4.28
2022-10-17T22:43:32.937Z,4.82
2022-10-17T22:46:01.704Z,4.63
2022-10-17T22:48:29.155Z,4.60
2022-10-17T22:50:57.283Z,4.50
2022-10-17T22:53:26.170Z,4.43
2022-10-17T22:55:56.817Z,4.80
2022-10-17T22:58:24.091Z,4.43
2022-10-17T23:00:51.884Z,4.30
2022-10-17T23:03:19.394Z,4.88
2022-10-17T23:05:45.768Z,4.40
2022-10-17T23:08:13.471Z,4.07
2022-10-17T23:10:39.878Z,4.50
2022-10-17T23:13:06.715Z,4.13
2022-10-17T23:15:33.955Z,4.32
2022-10-17T23:18:01.271Z,4.15
2022-10-17T23:20:28.981Z,4.22
2022-10-17T23:22:55.542Z,3.92
2022-10-17T23:25:22.495Z,4.10
2022-10-17T23:27:49.069Z,3.70
2022-10-17T23:30:15.627Z,3.97
2022-10-17T23:32:41.997Z,4.03
2022-10-17T23:35:08.827Z,4.18
2022-10-17T23:37:35.819Z,4.20
2022-10-17T23:40:03.435Z,4.65
2022-10-17T23:42:29.858Z,4.05
2022-10-17T23:44:56.211Z,4.15
2022-10-17T23:47:22.598Z,4.50
2022-10-17T23:49:49.016Z,4.70
2022-10-17T23:52:15.653Z,4.60
2022-10-17T23:57:13.289Z,4.03
2022-10-17T23:59:39.640Z,4.70
